Time;durP1;ratioP1;P1;durP2;ratioP2;P2;SDS_P1;SDS_P2;PMS_P1;PMS_P2;Temp;Humidity;BMP_temperature;BMP_pressure;BME280_temperature;BME280_humidity;BME280_pressure;Samples;Min_cycle;Max_cycle;Signal;HPM_P1;HPM_P2
2022/03/19 00:00:35;;;;;;;;;12.00;8.50;;;;;;;;4937849;28;11489;-77
2022/03/19 00:03:02;;;;;;;;;12.50;10.00;;;;;;;;4942022;28;11528;-78
2022/03/19 00:05:30;;;;;;;;;6.00;6.00;;;;;;;;4933101;28;11651;-78
2022/03/19 00:07:57;;;;;;;;;9.25;6.00;;;;;;;;4941290;28;11445;-76
2022/03/19 00:10:26;;;;;;;;;7.25;7.25;;;;;;;;4945891;28;11593;-78
2022/03/19 00:12:54;;;;;;;;;9.00;9.00;;;;;;;;4939932;28;11499;-75
2022/03/19 00:15:21;;;;;;;;;10.00;10.00;;;;;;;;4940938;28;11596;-78
2022/03/19 00:17:48;;;;;;;;;7.25;7.25;;;;;;;;4940068;28;11377;-80
2022/03/19 00:20:16;;;;;;;;;8.50;8.50;;;;;;;;4938189;28;11561;-80
2022/03/19 00:22:43;;;;;;;;;10.25;9.25;;;;;;;;4939949;28;11595;-77
2022/03/19 00:25:12;;;;;;;;;9.25;6.75;;;;;;;;4940457;28;11595;-77
2022/03/19 00:27:41;;;;;;;;;9.00;9.00;;;;;;;;4940429;28;11466;-75
2022/03/19 00:30:10;;;;;;;;;9.50;9.00;;;;;;;;4921412;28;12284;-75
2022/03/19 00:32:38;;;;;;;;;10.00;8.00;;;;;;;;4941512;28;11630;-76
2022/03/19 00:35:06;;;;;;;;;7.00;7.00;;;;;;;;4937901;28;11502;-79
2022/03/19 00:37:34;;;;;;;;;5.50;5.50;;;;;;;;4930200;28;11604;-80
2022/03/19 00:40:01;;;;;;;;;5.50;5.00;;;;;;;;4940072;28;11488;-78
2022/03/19 00:42:31;;;;;;;;;9.25;7.00;;;;;;;;4938574;28;11536;-78
2022/03/19 00:44:59;;;;;;;;;5.00;5.00;;;;;;;;4941877;28;11508;-79
2022/03/19 00:47:26;;;;;;;;;7.00;7.00;;;;;;;;4940956;28;11616;-80
2022/03/19 00:49:54;;;;;;;;;6.00;6.00;;;;;;;;4943537;28;12293;-79
2022/03/19 00:52:21;;;;;;;;;8.50;8.50;;;;;;;;4933493;28;11681;-75
2022/03/19 00:54:49;;;;;;;;;6.75;6.75;;;;;;;;4941319;28;11512;-75
2022/03/19 00:57:16;;;;;;;;;10.75;7.50;;;;;;;;4940945;28;11531;-75
2022/03/19 00:59:43;;;;;;;;;6.00;6.00;;;;;;;;4939770;28;11630;-79
2022/03/19 01:02:11;;;;;;;;;3.50;3.50;;;;;;;;4941391;28;11618;-80
2022/03/19 01:04:39;;;;;;;;;2.50;2.50;;;;;;;;4940206;28;11659;-80
2022/03/19 01:07:06;;;;;;;;;6.75;6.00;;;;;;;;4942510;28;11553;-78
2022/03/19 01:09:33;;;;;;;;;7.00;7.00;;;;;;;;4934050;28;12408;-75
2022/03/19 01:12:00;;;;;;;;;6.25;6.25;;;;;;;;4941458;28;11528;-77
2022/03/19 01:14:28;;;;;;;;;6.00;6.00;;;;;;;;4944185;28;11446;-76
2022/03/19 01:16:55;;;;;;;;;10.25;7.50;;;;;;;;4949692;28;11515;-76
2022/03/19 01:22:05;;;;;;;;;7.00;7.00;;;;;;;;4928156;28;11480;-81
2022/03/19 01:24:33;;;;;;;;;5.50;5.50;;;;;;;;4940612;28;11513;-80
2022/03/19 01:27:00;;;;;;;;;5.00;3.00;;;;;;;;4940365;28;11499;-78
2022/03/19 01:29:27;;;;;;;;;7.00;6.00;;;;;;;;4950022;28;11466;-76
2022/03/19 01:31:54;;;;;;;;;7.50;5.75;;;;;;;;4940354;28;11513;-78
2022/03/19 01:34:23;;;;;;;;;6.00;6.00;;;;;;;;4940452;28;11619;-80
2022/03/19 01:36:50;;;;;;;;;6.25;6.25;;;;;;;;4941955;28;11569;-76
2022/03/19 01:39:18;;;;;;;;;5.75;5.75;;;;;;;;4938914;28;11487;-76
2022/03/19 01:41:45;;;;;;;;;5.25;5.25;;;;;;;;4940180;28;12226;-79
2022/03/19 01:44:19;;;;;;;;;5.00;5.00;;;;;;;;4939335;28;11504;-76
2022/03/19 01:46:57;;;;;;;;;5.00;5.00;;;;;;;;4941283;28;11518;-77
2022/03/19 01:49:26;;;;;;;;;8.75;6.50;;;;;;;;4940581;28;11480;-79
2022/03/19 01:51:53;;;;;;;;;7.50;6.00;;;;;;;;4940716;28;11458;-75
2022/03/19 01:54:28;;;;;;;;;4.50;3.00;;;;;;;;4940704;28;11473;-80
2022/03/19 01:56:56;;;;;;;;;4.75;4.75;;;;;;;;4940053;28;11476;-78
2022/03/19 01:59:26;;;;;;;;;3.50;3.50;;;;;;;;4938492;28;11492;-75
2022/03/19 02:01:55;;;;;;;;;9.50;6.00;;;;;;;;4939028;28;11475;-79
2022/03/19 02:04:22;;;;;;;;;6.00;5.00;;;;;;;;4944633;28;11491;-80
2022/03/19 02:06:51;;;;;;;;;6.00;6.00;;;;;;;;4940435;28;11474;-80
2022/03/19 02:09:18;;;;;;;;;5.25;5.25;;;;;;;;4940174;28;11573;-79
2022/03/19 02:11:46;;;;;;;;;8.25;6.50;;;;;;;;4940698;28;11488;-79
2022/03/19 02:14:13;;;;;;;;;6.50;6.50;;;;;;;;4938830;28;11719;-76
2022/03/19 02:16:42;;;;;;;;;5.00;5.00;;;;;;;;4936668;28;12325;-77
2022/03/19 02:19:10;;;;;;;;;5.50;5.50;;;;;;;;4977938;28;12342;-78
2022/03/19 02:21:41;;;;;;;;;6.50;6.50;;;;;;;;4947082;28;11566;-76
2022/03/19 02:26:56;;;;;;;;;5.75;5.75;;;;;;;;4935596;28;11567;-77
2022/03/19 02:29:24;;;;;;;;;5.75;5.25;;;;;;;;4940311;28;11532;-76
2022/03/19 02:31:55;;;;;;;;;9.50;6.75;;;;;;;;4939431;28;11485;-80
2022/03/19 02:34:23;;;;;;;;;7.50;7.50;;;;;;;;4940007;28;11530;-76
2022/03/19 02:36:51;;;;;;;;;14.25;9.75;;;;;;;;4939402;28;12422;-81
2022/03/19 02:39:21;;;;;;;;;8.75;8.50;;;;;;;;4939699;28;11570;-79
2022/03/19 02:41:50;;;;;;;;;8.00;8.00;;;;;;;;4941575;28;11514;-79
2022/03/19 02:44:19;;;;;;;;;10.50;9.00;;;;;;;;4933708;28;11638;-78
2022/03/19 02:46:48;;;;;;;;;7.00;7.00;;;;;;;;4939553;28;11558;-77
2022/03/19 02:49:16;;;;;;;;;7.50;6.75;;;;;;;;4963626;28;11582;-80
2022/03/19 02:51:45;;;;;;;;;6.50;6.50;;;;;;;;4939251;28;11526;-81
2022/03/19 02:54:14;;;;;;;;;9.50;6.00;;;;;;;;4941516;28;11554;-80
2022/03/19 02:56:44;;;;;;;;;5.50;5.50;;;;;;;;4943321;28;11661;-76
2022/03/19 02:59:13;;;;;;;;;8.50;6.00;;;;;;;;4941164;28;11515;-77
2022/03/19 03:01:41;;;;;;;;;5.50;5.50;;;;;;;;4942178;28;11501;-76
2022/03/19 03:04:08;;;;;;;;;5.00;5.00;;;;;;;;4942395;28;11603;-76
2022/03/19 03:06:37;;;;;;;;;7.00;3.50;;;;;;;;4941405;28;11523;-76
2022/03/19 03:09:04;;;;;;;;;7.25;7.25;;;;;;;;4985211;28;11519;-77
2022/03/19 03:11:32;;;;;;;;;2.75;2.75;;;;;;;;4941354;28;11598;-75
2022/03/19 03:14:02;;;;;;;;;5.25;5.25;;;;;;;;4943537;28;11599;-75
2022/03/19 03:16:30;;;;;;;;;6.00;6.00;;;;;;;;4941670;28;12337;-77
2022/03/19 03:18:57;;;;;;;;;5.50;5.50;;;;;;;;4942976;28;11609;-76
2022/03/19 03:21:27;;;;;;;;;7.00;5.00;;;;;;;;4943630;28;11539;-77
2022/03/19 03:23:58;;;;;;;;;9.00;6.00;;;;;;;;4941175;28;11670;-79
2022/03/19 03:26:25;;;;;;;;;5.00;5.00;;;;;;;;4942807;28;11613;-77
2022/03/19 03:28:53;;;;;;;;;6.00;6.00;;;;;;;;4932470;28;11577;-76
2022/03/19 03:31:22;;;;;;;;;6.00;6.00;;;;;;;;4942714;28;11518;-77
2022/03/19 03:33:49;;;;;;;;;5.00;2.50;;;;;;;;4945571;28;11658;-75
2022/03/19 03:36:16;;;;;;;;;9.25;7.50;;;;;;;;4940998;28;11614;-79
2022/03/19 03:38:44;;;;;;;;;9.00;9.00;;;;;;;;4947524;28;11657;-79
2022/03/19 03:41:11;;;;;;;;;8.75;6.00;;;;;;;;4938691;28;11524;-77
2022/03/19 03:43:38;;;;;;;;;4.00;4.00;;;;;;;;4942831;28;11717;-75
2022/03/19 03:46:06;;;;;;;;;9.25;8.50;;;;;;;;4941324;28;11523;-75
2022/03/19 03:48:36;;;;;;;;;9.50;8.50;;;;;;;;5007615;28;11613;-75
2022/03/19 03:51:06;;;;;;;;;9.25;8.25;;;;;;;;4954593;28;11517;-79
2022/03/19 03:53:34;;;;;;;;;8.00;8.00;;;;;;;;4942520;28;11578;-77
2022/03/19 03:56:02;;;;;;;;;9.75;6.00;;;;;;;;4942919;28;11592;-78
2022/03/19 03:58:30;;;;;;;;;6.00;6.00;;;;;;;;4934976;28;11569;-78
2022/03/19 04:00:58;;;;;;;;;5.00;5.00;;;;;;;;4938650;28;11578;-79
2022/03/19 04:03:25;;;;;;;;;11.00;8.75;;;;;;;;4940732;28;12789;-80
2022/03/19 04:05:54;;;;;;;;;10.00;6.00;;;;;;;;4942528;28;12981;-76
2022/03/19 04:08:21;;;;;;;;;9.00;9.00;;;;;;;;4940017;28;12216;-77
2022/03/19 04:10:48;;;;;;;;;8.00;8.00;;;;;;;;4939989;28;11699;-75
2022/03/19 04:13:18;;;;;;;;;7.75;7.75;;;;;;;;4941749;28;11673;-78
2022/03/19 04:15:45;;;;;;;;;8.50;4.25;;;;;;;;4940179;28;11588;-75
2022/03/19 04:18:13;;;;;;;;;10.00;10.00;;;;;;;;4942757;28;11663;-77
2022/03/19 04:20:41;;;;;;;;;6.50;6.50;;;;;;;;4941017;28;11618;-74
2022/03/19 04:23:10;;;;;;;;;8.75;8.75;;;;;;;;4942084;28;11561;-78
2022/03/19 04:25:37;;;;;;;;;6.00;6.00;;;;;;;;4940483;28;11557;-74
2022/03/19 04:28:05;;;;;;;;;11.50;7.75;;;;;;;;4942533;28;11708;-75
2022/03/19 04:30:33;;;;;;;;;9.00;9.00;;;;;;;;4970608;28;11531;-78
2022/03/19 04:33:01;;;;;;;;;14.00;9.50;;;;;;;;4941794;28;11505;-77
2022/03/19 04:38:17;;;;;;;;;9.00;8.50;;;;;;;;4938244;28;11603;-77
2022/03/19 04:40:47;;;;;;;;;13.00;8.75;;;;;;;;4958318;28;11569;-74
2022/03/19 04:43:14;;;;;;;;;9.75;8.25;;;;;;;;4944789;28;13149;-79
2022/03/19 04:45:42;;;;;;;;;12.00;9.00;;;;;;;;4945801;28;12527;-81
2022/03/19 04:48:10;;;;;;;;;14.25;12.50;;;;;;;;4943067;28;11592;-80
2022/03/19 04:50:38;;;;;;;;;14.00;9.00;;;;;;;;4939308;28;11567;-76
2022/03/19 04:53:07;;;;;;;;;15.25;9.50;;;;;;;;4940835;28;12816;-77
2022/03/19 04:55:37;;;;;;;;;10.50;9.00;;;;;;;;4940585;28;11574;-76
2022/03/19 04:58:04;;;;;;;;;9.25;9.25;;;;;;;;4942323;28;11677;-80
2022/03/19 05:00:32;;;;;;;;;8.25;8.25;;;;;;;;4939546;28;11547;-76
2022/03/19 05:02:59;;;;;;;;;13.25;13.25;;;;;;;;4972730;28;11558;-76
2022/03/19 05:05:27;;;;;;;;;12.25;9.75;;;;;;;;4941056;28;11602;-80
2022/03/19 05:07:54;;;;;;;;;19.00;14.75;;;;;;;;4932358;28;11522;-82
2022/03/19 05:13:09;;;;;;;;;15.00;13.00;;;;;;;;4940731;28;11542;-75
2022/03/19 05:15:37;;;;;;;;;20.00;13.75;;;;;;;;4941493;28;11558;-76
2022/03/19 05:18:05;;;;;;;;;13.00;13.00;;;;;;;;4940110;28;11565;-77
2022/03/19 05:20:32;;;;;;;;;10.00;8.50;;;;;;;;4943163;28;11579;-75
2022/03/19 05:22:59;;;;;;;;;7.75;7.25;;;;;;;;4935515;28;11548;-75
2022/03/19 05:25:27;;;;;;;;;13.25;11.50;;;;;;;;4939763;28;12324;-79
2022/03/19 05:27:54;;;;;;;;;14.25;13.25;;;;;;;;4941233;28;11640;-80
2022/03/19 05:30:23;;;;;;;;;14.00;13.75;;;;;;;;4939677;28;11608;-78
2022/03/19 05:32:50;;;;;;;;;20.25;18.00;;;;;;;;4943574;28;11663;-80
2022/03/19 05:35:18;;;;;;;;;16.00;13.25;;;;;;;;4939775;28;11677;-76
2022/03/19 05:37:47;;;;;;;;;17.25;14.50;;;;;;;;4941113;28;11645;-75
2022/03/19 05:40:15;;;;;;;;;18.50;18.50;;;;;;;;4938717;28;11588;-75
2022/03/19 05:42:42;;;;;;;;;17.25;15.00;;;;;;;;4939700;28;11629;-78
2022/03/19 05:45:10;;;;;;;;;17.75;14.50;;;;;;;;4940818;28;11841;-74
2022/03/19 05:47:40;;;;;;;;;20.75;17.25;;;;;;;;4939355;28;11596;-74
2022/03/19 05:50:08;;;;;;;;;18.50;16.25;;;;;;;;4941376;28;11724;-75
2022/03/19 05:52:36;;;;;;;;;17.25;16.50;;;;;;;;4939616;28;11721;-79
2022/03/19 05:55:05;;;;;;;;;18.50;16.75;;;;;;;;4948673;28;11683;-75
2022/03/19 05:57:33;;;;;;;;;19.50;17.25;;;;;;;;4940305;28;11693;-80
2022/03/19 06:00:00;;;;;;;;;18.25;15.25;;;;;;;;4940779;28;11591;-80
2022/03/19 06:02:28;;;;;;;;;10.25;10.25;;;;;;;;4939190;28;11556;-75
2022/03/19 06:04:57;;;;;;;;;21.50;17.00;;;;;;;;4939292;28;11652;-77
2022/03/19 06:07:24;;;;;;;;;18.50;17.75;;;;;;;;4963562;28;11565;-81
2022/03/19 06:09:52;;;;;;;;;20.25;19.75;;;;;;;;4942468;28;11573;-82
2022/03/19 06:12:19;;;;;;;;;17.25;12.75;;;;;;;;4940772;28;11776;-81
2022/03/19 06:14:47;;;;;;;;;16.50;13.25;;;;;;;;4939609;28;11782;-81
2022/03/19 06:17:14;;;;;;;;;17.25;17.00;;;;;;;;4943957;28;11640;-85
2022/03/19 06:19:41;;;;;;;;;16.75;16.00;;;;;;;;4941431;28;11587;-81
2022/03/19 06:22:10;;;;;;;;;13.75;13.75;;;;;;;;4943544;28;11596;-81
2022/03/19 06:24:37;;;;;;;;;28.25;21.25;;;;;;;;4941514;28;11549;-82
2022/03/19 06:27:05;;;;;;;;;23.00;20.25;;;;;;;;4940214;28;11646;-83
2022/03/19 06:29:32;;;;;;;;;20.25;17.25;;;;;;;;4940505;28;11633;-79
2022/03/19 06:32:00;;;;;;;;;24.75;23.50;;;;;;;;4931724;28;11543;-87
2022/03/19 06:34:29;;;;;;;;;21.00;19.00;;;;;;;;4939699;28;12408;-87
2022/03/19 06:39:43;;;;;;;;;20.00;20.00;;;;;;;;4933241;28;11556;-89
2022/03/19 06:42:11;;;;;;;;;25.75;22.50;;;;;;;;4971422;28;11633;-85
2022/03/19 06:44:39;;;;;;;;;31.75;23.00;;;;;;;;4939177;28;12405;-85
2022/03/19 06:47:07;;;;;;;;;23.75;20.50;;;;;;;;4941065;28;11582;-83
2022/03/19 06:49:34;;;;;;;;;20.00;13.75;;;;;;;;4946128;28;11582;-87
2022/03/19 06:52:01;;;;;;;;;18.25;16.50;;;;;;;;4941591;28;11559;-89
2022/03/19 06:54:29;;;;;;;;;25.00;22.25;;;;;;;;4941200;28;12347;-86
2022/03/19 06:57:00;;;;;;;;;20.50;16.75;;;;;;;;4941367;28;12352;-87
2022/03/19 06:59:28;;;;;;;;;23.00;22.50;;;;;;;;4939889;28;11566;-83
2022/03/19 07:01:56;;;;;;;;;21.75;19.00;;;;;;;;4933078;28;11551;-77
2022/03/19 07:04:23;;;;;;;;;23.50;21.00;;;;;;;;4935878;28;11632;-78
2022/03/19 07:06:50;;;;;;;;;18.25;17.50;;;;;;;;4934001;28;12399;-78
2022/03/19 07:09:18;;;;;;;;;25.75;22.25;;;;;;;;4936087;28;11633;-78
2022/03/19 07:11:45;;;;;;;;;33.00;26.50;;;;;;;;4936814;28;11691;-79
2022/03/19 07:14:14;;;;;;;;;28.25;24.25;;;;;;;;4936303;28;11578;-82
2022/03/19 07:16:44;;;;;;;;;26.50;19.25;;;;;;;;4934420;28;11570;-80
2022/03/19 07:19:12;;;;;;;;;29.00;23.50;;;;;;;;4938126;28;11569;-83
2022/03/19 07:21:41;;;;;;;;;28.50;26.00;;;;;;;;4938020;28;11606;-79
2022/03/19 07:24:08;;;;;;;;;25.50;25.50;;;;;;;;4931930;28;11566;-81
2022/03/19 07:26:36;;;;;;;;;25.50;21.50;;;;;;;;4925990;28;12443;-78
2022/03/19 07:29:04;;;;;;;;;20.25;17.00;;;;;;;;4931419;28;11590;-77
2022/03/19 07:31:32;;;;;;;;;28.00;27.25;;;;;;;;4937359;28;11557;-77
2022/03/19 07:34:00;;;;;;;;;24.75;22.50;;;;;;;;4942683;28;11612;-80
2022/03/19 07:36:28;;;;;;;;;37.00;29.00;;;;;;;;4935029;28;11573;-78
2022/03/19 07:38:55;;;;;;;;;25.50;24.75;;;;;;;;4928640;28;11584;-78
2022/03/19 07:44:08;;;;;;;;;31.50;25.50;;;;;;;;4934944;28;11589;-77
2022/03/19 07:46:37;;;;;;;;;32.75;27.00;;;;;;;;4937882;28;11582;-77
2022/03/19 07:49:05;;;;;;;;;34.50;31.50;;;;;;;;4939884;28;11922;-77
2022/03/19 07:51:33;;;;;;;;;35.00;33.75;;;;;;;;4940034;28;11594;-82
2022/03/19 07:54:01;;;;;;;;;41.50;37.50;;;;;;;;4942344;28;11659;-80
2022/03/19 07:56:28;;;;;;;;;43.50;35.75;;;;;;;;4940767;28;11644;-79
2022/03/19 07:58:55;;;;;;;;;45.75;39.25;;;;;;;;4942492;28;11857;-79
2022/03/19 08:01:23;;;;;;;;;34.75;34.00;;;;;;;;4934627;28;11556;-79
2022/03/19 08:03:52;;;;;;;;;32.00;32.00;;;;;;;;4939604;28;11603;-78
2022/03/19 08:06:19;;;;;;;;;36.25;31.50;;;;;;;;4935999;28;11607;-79
2022/03/19 08:08:46;;;;;;;;;32.50;28.00;;;;;;;;4940282;28;12706;-75
2022/03/19 08:11:14;;;;;;;;;42.75;37.00;;;;;;;;4937433;28;11620;-80
2022/03/19 08:13:41;;;;;;;;;38.25;35.00;;;;;;;;4932895;28;12308;-78
2022/03/19 08:16:10;;;;;;;;;38.25;31.25;;;;;;;;4934719;28;11562;-77
2022/03/19 08:18:37;;;;;;;;;42.50;39.00;;;;;;;;4935016;28;11545;-78
2022/03/19 08:21:06;;;;;;;;;41.75;35.75;;;;;;;;4938819;28;11657;-79
2022/03/19 08:23:35;;;;;;;;;47.50;38.00;;;;;;;;4929473;28;11574;-78
2022/03/19 08:26:03;;;;;;;;;38.50;36.50;;;;;;;;4936368;28;11511;-78
2022/03/19 08:28:30;;;;;;;;;36.25;34.25;;;;;;;;4931049;28;11588;-78
2022/03/19 08:30:58;;;;;;;;;44.75;39.00;;;;;;;;4951123;28;11594;-78
2022/03/19 08:33:26;;;;;;;;;39.50;35.50;;;;;;;;4937686;28;11593;-78
2022/03/19 08:35:53;;;;;;;;;46.00;38.75;;;;;;;;4934177;28;11538;-78
2022/03/19 08:41:07;;;;;;;;;46.75;41.25;;;;;;;;4918873;28;12352;-78
2022/03/19 08:43:34;;;;;;;;;46.50;41.00;;;;;;;;4932115;28;11524;-78
2022/03/19 08:46:01;;;;;;;;;47.75;37.00;;;;;;;;4932419;28;11581;-78
2022/03/19 08:48:29;;;;;;;;;47.00;38.25;;;;;;;;4939214;28;11638;-78
2022/03/19 08:51:39;;;;;;;;;46.50;40.00;;;;;;;;4925285;28;11557;-78
2022/03/19 08:53:46;;;;;;;;;53.25;42.75;;;;;;;;4938196;28;12346;-78
2022/03/19 08:56:13;;;;;;;;;45.00;40.00;;;;;;;;4941993;28;11640;-78
2022/03/19 08:58:41;;;;;;;;;51.25;42.25;;;;;;;;4941731;28;11542;-77
2022/03/19 09:01:08;;;;;;;;;57.75;44.25;;;;;;;;4941137;28;11460;-77
2022/03/19 09:03:35;;;;;;;;;52.75;42.25;;;;;;;;4925645;28;11548;-78
2022/03/19 09:06:03;;;;;;;;;51.25;41.00;;;;;;;;4929467;28;11601;-78
2022/03/19 09:08:30;;;;;;;;;41.00;38.50;;;;;;;;4941414;28;11377;-83
2022/03/19 09:10:59;;;;;;;;;50.25;42.75;;;;;;;;4938564;28;11260;-76
2022/03/19 09:13:27;;;;;;;;;49.50;39.75;;;;;;;;4931418;28;12383;-80
2022/03/19 09:15:54;;;;;;;;;53.25;41.00;;;;;;;;4928886;28;11183;-80
2022/03/19 09:18:21;;;;;;;;;58.25;46.50;;;;;;;;4921085;28;11126;-77
2022/03/19 09:20:49;;;;;;;;;39.00;38.00;;;;;;;;4942435;28;11322;-80
2022/03/19 09:23:17;;;;;;;;;46.00;41.50;;;;;;;;4940595;28;11111;-80
2022/03/19 09:25:44;;;;;;;;;48.25;40.25;;;;;;;;4942420;28;11144;-80
2022/03/19 09:28:13;;;;;;;;;54.00;45.00;;;;;;;;4943355;28;11072;-80
2022/03/19 09:30:40;;;;;;;;;52.25;43.75;;;;;;;;4938645;28;10945;-80
2022/03/19 09:33:08;;;;;;;;;54.00;44.00;;;;;;;;4942020;28;11605;-80
2022/03/19 09:35:35;;;;;;;;;50.25;42.75;;;;;;;;4939869;28;10836;-74
2022/03/19 09:38:03;;;;;;;;;52.75;42.00;;;;;;;;4938860;28;10873;-82
2022/03/19 09:40:30;;;;;;;;;57.00;43.25;;;;;;;;4943843;28;11035;-80
2022/03/19 09:42:58;;;;;;;;;57.50;43.00;;;;;;;;4941074;28;10985;-79
2022/03/19 09:45:29;;;;;;;;;55.00;45.50;;;;;;;;4944450;28;11004;-81
2022/03/19 09:47:57;;;;;;;;;60.75;49.25;;;;;;;;4934113;28;10842;-83
2022/03/19 09:50:26;;;;;;;;;57.00;47.00;;;;;;;;4947356;28;10770;-78
2022/03/19 09:52:55;;;;;;;;;54.50;40.50;;;;;;;;4927222;28;10884;-79
2022/03/19 09:55:26;;;;;;;;;57.00;44.00;;;;;;;;4940594;28;10783;-77
2022/03/19 09:57:53;;;;;;;;;50.25;43.75;;;;;;;;4943442;28;10626;-77
2022/03/19 10:00:22;;;;;;;;;64.50;47.50;;;;;;;;4941783;28;10526;-79
2022/03/19 10:02:56;;;;;;;;;53.50;44.50;;;;;;;;4942980;28;10657;-80
2022/03/19 10:10:56;;;;;;;;;59.50;45.00;;;;;;;;4937342;28;10484;-80
2022/03/19 10:13:24;;;;;;;;;60.25;49.00;;;;;;;;4931122;28;10576;-81
2022/03/19 10:15:51;;;;;;;;;50.25;41.25;;;;;;;;4941150;28;10549;-80
2022/03/19 10:18:20;;;;;;;;;52.75;42.75;;;;;;;;4941248;28;10244;-84
2022/03/19 10:20:47;;;;;;;;;56.00;46.75;;;;;;;;4938705;28;10278;-78
2022/03/19 10:23:15;;;;;;;;;48.25;40.00;;;;;;;;4939432;28;10231;-75
2022/03/19 10:25:42;;;;;;;;;47.00;39.00;;;;;;;;4941078;28;10018;-76
2022/03/19 10:28:11;;;;;;;;;54.00;45.00;;;;;;;;4941975;28;10028;-76
2022/03/19 10:30:39;;;;;;;;;57.00;47.25;;;;;;;;4938714;28;10104;-76
2022/03/19 10:33:09;;;;;;;;;49.75;39.75;;;;;;;;4934785;28;10061;-76
2022/03/19 10:35:39;;;;;;;;;52.25;41.75;;;;;;;;4940732;28;9925;-76
2022/03/19 10:38:19;;;;;;;;;52.50;43.75;;;;;;;;4957804;28;9923;-76
2022/03/19 10:40:48;;;;;;;;;50.25;42.25;;;;;;;;4937846;28;10094;-77
2022/03/19 10:43:19;;;;;;;;;45.75;40.00;;;;;;;;4937964;28;9981;-77
2022/03/19 10:45:49;;;;;;;;;53.25;45.00;;;;;;;;4896896;29;9972;-76
2022/03/19 10:48:19;;;;;;;;;50.25;42.00;;;;;;;;4899867;28;9846;-76
2022/03/19 10:50:48;;;;;;;;;35.75;33.50;;;;;;;;4886300;29;9751;-76
2022/03/19 10:53:15;;;;;;;;;52.50;42.25;;;;;;;;4897837;28;9651;-76
2022/03/19 10:55:43;;;;;;;;;55.25;45.25;;;;;;;;4893663;29;9751;-76
2022/03/19 10:58:11;;;;;;;;;49.75;42.00;;;;;;;;4887715;28;9935;-76
2022/03/19 11:00:39;;;;;;;;;51.00;42.75;;;;;;;;4898898;28;9827;-76
2022/03/19 11:03:13;;;;;;;;;52.00;44.75;;;;;;;;4889837;28;9648;-76
2022/03/19 11:05:40;;;;;;;;;50.50;43.00;;;;;;;;4888307;29;9758;-76
2022/03/19 11:08:09;;;;;;;;;49.25;42.50;;;;;;;;4882725;29;9682;-77
2022/03/19 11:10:38;;;;;;;;;50.50;41.00;;;;;;;;4894999;29;9878;-78
2022/03/19 11:13:08;;;;;;;;;48.00;39.75;;;;;;;;4918646;29;9458;-74
2022/03/19 11:15:36;;;;;;;;;50.50;42.00;;;;;;;;4903798;29;9798;-77
2022/03/19 11:18:06;;;;;;;;;58.25;44.75;;;;;;;;4904505;29;9782;-76
2022/03/19 11:20:35;;;;;;;;;52.75;44.25;;;;;;;;4910780;28;10448;-80
2022/03/19 11:23:04;;;;;;;;;55.25;46.25;;;;;;;;4903794;28;9843;-83
2022/03/19 11:25:38;;;;;;;;;55.75;44.25;;;;;;;;4905652;28;10587;-81
2022/03/19 11:28:08;;;;;;;;;50.75;40.25;;;;;;;;4912354;28;9751;-80
2022/03/19 11:30:38;;;;;;;;;49.75;42.25;;;;;;;;4911991;28;9684;-81
2022/03/19 11:33:08;;;;;;;;;43.25;37.50;;;;;;;;4903687;29;9512;-83
2022/03/19 11:35:36;;;;;;;;;46.33;40.00;;;;;;;;4891358;28;9623;-81
2022/03/19 11:38:05;;;;;;;;;53.33;44.00;;;;;;;;4912500;28;9493;-81
2022/03/19 11:40:36;;;;;;;;;50.33;42.33;;;;;;;;4902091;28;9439;-78
2022/03/19 11:43:06;;;;;;;;;41.67;35.67;;;;;;;;4899086;28;9439;-80
2022/03/19 11:45:55;;;;;;;;;51.33;41.33;;;;;;;;4928042;28;9315;-83
2022/03/19 11:48:42;;;;;;;;;56.67;43.67;;;;;;;;4941903;28;9293;-80
2022/03/19 11:51:38;;;;;;;;;48.67;39.33;;;;;;;;4930760;28;9425;-84
2022/03/19 11:54:09;;;;;;;;;51.67;42.67;;;;;;;;4942647;28;10363;-83
2022/03/19 11:57:08;;;;;;;;;57.67;44.67;;;;;;;;4926370;28;9349;-83
2022/03/19 11:59:46;;;;;;;;;54.67;41.67;;;;;;;;4935638;28;9378;-79
2022/03/19 12:02:14;;;;;;;;;51.67;42.33;;;;;;;;4924743;28;9387;-82
2022/03/19 12:04:44;;;;;;;;;48.33;40.00;;;;;;;;4934546;28;9181;-81
2022/03/19 12:07:14;;;;;;;;;51.67;42.67;;;;;;;;4923296;28;9108;-83
2022/03/19 12:10:01;;;;;;;;;50.67;41.33;;;;;;;;4923289;28;9227;-83
2022/03/19 12:12:32;;;;;;;;;58.00;45.33;;;;;;;;4928655;28;9117;-81
2022/03/19 12:15:00;;;;;;;;;50.00;41.67;;;;;;;;4927567;28;9108;-82
2022/03/19 12:17:32;;;;;;;;;48.50;39.00;;;;;;;;4928453;28;9174;-80
2022/03/19 12:20:01;;;;;;;;;49.75;42.50;;;;;;;;4930177;28;8882;-80
2022/03/19 12:22:31;;;;;;;;;51.50;41.00;;;;;;;;4931020;28;8871;-78
2022/03/19 12:25:12;;;;;;;;;49.25;39.50;;;;;;;;4913329;28;8867;-80
2022/03/19 12:27:41;;;;;;;;;48.75;40.25;;;;;;;;4938299;28;8888;-81
2022/03/19 12:30:11;;;;;;;;;49.25;41.50;;;;;;;;4965512;28;8849;-81
2022/03/19 12:32:54;;;;;;;;;53.00;42.25;;;;;;;;4942345;28;8903;-80
2022/03/19 12:35:21;;;;;;;;;51.75;41.00;;;;;;;;4942108;28;8853;-79
2022/03/19 12:37:53;;;;;;;;;49.50;36.00;;;;;;;;4939187;28;8865;-81
2022/03/19 12:40:22;;;;;;;;;3.50;0.00;;;;;;;;4943039;28;8938;-81
2022/03/19 12:43:06;;;;;;;;;50.75;40.75;;;;;;;;4921886;28;8989;-81
2022/03/19 12:45:37;;;;;;;;;50.25;41.00;;;;;;;;4942758;28;8868;-80
2022/03/19 12:48:12;;;;;;;;;47.25;41.00;;;;;;;;4948482;28;8888;-79
2022/03/19 12:50:41;;;;;;;;;46.25;36.00;;;;;;;;4948377;28;8896;-80
2022/03/19 12:53:09;;;;;;;;;44.00;36.00;;;;;;;;4946414;28;8884;-80
2022/03/19 12:55:36;;;;;;;;;43.00;38.00;;;;;;;;4942836;28;8873;-79
2022/03/19 12:58:05;;;;;;;;;44.25;36.75;;;;;;;;4943090;28;8916;-80
2022/03/19 13:00:33;;;;;;;;;50.25;42.00;;;;;;;;4942089;28;8801;-80
2022/03/19 13:03:00;;;;;;;;;49.25;40.00;;;;;;;;4949165;28;8921;-81
2022/03/19 13:05:27;;;;;;;;;45.50;36.25;;;;;;;;4935950;28;9018;-80
2022/03/19 13:08:06;;;;;;;;;48.75;39.25;;;;;;;;4942400;28;9007;-80
2022/03/19 13:10:42;;;;;;;;;34.25;32.25;;;;;;;;4943288;28;8893;-81
2022/03/19 13:13:11;;;;;;;;;36.50;34.25;;;;;;;;4942338;28;8907;-80
2022/03/19 13:15:48;;;;;;;;;47.00;38.00;;;;;;;;4942489;28;8877;-80
2022/03/19 13:18:28;;;;;;;;;36.75;33.00;;;;;;;;4942830;28;8884;-80
2022/03/19 13:21:00;;;;;;;;;40.50;35.00;;;;;;;;4942579;28;9665;-80
2022/03/19 13:23:28;;;;;;;;;40.00;35.50;;;;;;;;4943705;28;8896;-80
2022/03/19 13:25:56;;;;;;;;;45.75;38.25;;;;;;;;4941861;28;8879;-80
2022/03/19 13:28:27;;;;;;;;;42.75;37.00;;;;;;;;4943834;28;8896;-79
2022/03/19 13:30:55;;;;;;;;;45.25;37.50;;;;;;;;4942630;28;8813;-80
2022/03/19 13:33:23;;;;;;;;;42.00;34.00;;;;;;;;4943615;28;8960;-81
2022/03/19 13:35:52;;;;;;;;;43.75;37.00;;;;;;;;4985635;28;8889;-80
2022/03/19 13:38:22;;;;;;;;;32.75;31.50;;;;;;;;4941901;28;10126;-80
2022/03/19 13:40:52;;;;;;;;;36.00;30.50;;;;;;;;4943741;28;8905;-80
2022/03/19 13:43:20;;;;;;;;;43.75;36.25;;;;;;;;4941969;28;8914;-80
2022/03/19 13:45:49;;;;;;;;;39.75;34.75;;;;;;;;4928635;28;8883;-80
2022/03/19 13:48:22;;;;;;;;;42.75;36.50;;;;;;;;4941381;28;8884;-80
2022/03/19 13:50:59;;;;;;;;;30.25;25.50;;;;;;;;4943846;28;9035;-80
2022/03/19 13:53:42;;;;;;;;;34.00;32.25;;;;;;;;4941955;28;8978;-80
2022/03/19 13:56:10;;;;;;;;;34.25;30.00;;;;;;;;4942800;28;8935;-80
2022/03/19 13:58:37;;;;;;;;;30.75;29.25;;;;;;;;4942730;28;8927;-79
2022/03/19 14:01:14;;;;;;;;;29.75;27.25;;;;;;;;4941815;28;8816;-80
2022/03/19 14:03:41;;;;;;;;;33.50;29.00;;;;;;;;4942258;28;8861;-80
2022/03/19 14:06:09;;;;;;;;;30.50;29.00;;;;;;;;4965083;28;9626;-81
2022/03/19 14:08:39;;;;;;;;;34.00;30.75;;;;;;;;4940058;28;8973;-81
2022/03/19 14:11:13;;;;;;;;;37.50;34.25;;;;;;;;4945025;28;9661;-86
2022/03/19 14:13:43;;;;;;;;;38.00;33.75;;;;;;;;4943851;28;8868;-82
2022/03/19 14:16:14;;;;;;;;;35.50;32.75;;;;;;;;4945184;28;8950;-79
2022/03/19 14:18:42;;;;;;;;;33.25;31.00;;;;;;;;4940226;28;9025;-80
2022/03/19 14:21:10;;;;;;;;;35.00;32.50;;;;;;;;4941468;28;8903;-75
2022/03/19 14:23:39;;;;;;;;;36.50;29.75;;;;;;;;4942733;28;9638;-78
2022/03/19 14:26:06;;;;;;;;;36.75;32.75;;;;;;;;4942004;28;8881;-82
2022/03/19 14:28:34;;;;;;;;;27.75;25.00;;;;;;;;4941173;28;9736;-78
2022/03/19 14:31:01;;;;;;;;;19.25;15.50;;;;;;;;4941576;28;8825;-83
2022/03/19 14:33:31;;;;;;;;;18.00;17.00;;;;;;;;4942624;28;8880;-82
2022/03/19 14:36:01;;;;;;;;;14.00;14.00;;;;;;;;4943174;28;8889;-82
2022/03/19 14:38:30;;;;;;;;;13.50;10.25;;;;;;;;4954162;28;8869;-82
2022/03/19 14:40:59;;;;;;;;;16.00;14.50;;;;;;;;4942091;28;9627;-82
2022/03/19 14:43:27;;;;;;;;;14.50;12.25;;;;;;;;4941865;28;8880;-83
2022/03/19 14:45:56;;;;;;;;;12.75;12.75;;;;;;;;4938776;28;9710;-82
2022/03/19 14:48:25;;;;;;;;;11.00;11.00;;;;;;;;4940810;28;8885;-83
2022/03/19 14:50:54;;;;;;;;;13.00;12.00;;;;;;;;4942534;28;8912;-82
2022/03/19 14:53:22;;;;;;;;;14.25;12.25;;;;;;;;4951123;28;8862;-82
2022/03/19 14:55:53;;;;;;;;;12.00;12.00;;;;;;;;4946137;28;9031;-82
2022/03/19 14:58:21;;;;;;;;;12.50;11.25;;;;;;;;4946244;28;8885;-82
2022/03/19 15:00:49;;;;;;;;;13.50;11.00;;;;;;;;4939054;28;8829;-82
2022/03/19 15:03:17;;;;;;;;;16.25;14.75;;;;;;;;4935254;28;8896;-83